sensor_id;sensor_type;location;lat;lon;timestamp;temperature;humidity
33655;DHT22;19997;51.274;22.506;2023-05-20T00:00:15;13.40;99.90
33655;DHT22;19997;51.274;22.506;2023-05-20T00:02:42;13.40;99.90
33655;DHT22;19997;51.274;22.506;2023-05-20T00:05:11;13.50;99.90
33655;DHT22;19997;51.274;22.506;2023-05-20T00:07:38;13.50;99.90
33655;DHT22;19997;51.274;22.506;2023-05-20T00:10:06;13.50;99.90
33655;DHT22;19997;51.274;22.506;2023-05-20T00:12:33;13.50;99.90
33655;DHT22;19997;51.274;22.506;2023-05-20T00:15:00;13.50;99.90
33655;DHT22;19997;51.274;22.506;2023-05-20T00:17:27;13.50;99.90
33655;DHT22;19997;51.274;22.506;2023-05-20T00:19:55;13.50;99.90
33655;DHT22;19997;51.274;22.506;2023-05-20T00:22:23;13.50;99.90
33655;DHT22;19997;51.274;22.506;2023-05-20T00:24:50;13.50;99.90
33655;DHT22;19997;51.274;22.506;2023-05-20T00:27:17;13.50;99.90
33655;DHT22;19997;51.274;22.506;2023-05-20T00:29:44;13.50;99.90
33655;DHT22;19997;51.274;22.506;2023-05-20T00:32:11;13.50;99.90
33655;DHT22;19997;51.274;22.506;2023-05-20T00:34:38;13.50;99.90
33655;DHT22;19997;51.274;22.506;2023-05-20T00:37:05;13.50;99.90
33655;DHT22;19997;51.274;22.506;2023-05-20T00:39:34;13.60;99.90
33655;DHT22;19997;51.274;22.506;2023-05-20T00:42:01;13.60;99.90
33655;DHT22;19997;51.274;22.506;2023-05-20T00:44:28;13.60;99.90
33655;DHT22;19997;51.274;22.506;2023-05-20T00:46:55;13.60;99.90
33655;DHT22;19997;51.274;22.506;2023-05-20T00:49:22;13.60;99.90
33655;DHT22;19997;51.274;22.506;2023-05-20T00:51:50;13.60;99.90
33655;DHT22;19997;51.274;22.506;2023-05-20T00:54:17;13.60;99.90
33655;DHT22;19997;51.274;22.506;2023-05-20T00:56:46;13.60;99.90
33655;DHT22;19997;51.274;22.506;2023-05-20T00:59:14;13.60;99.90
33655;DHT22;19997;51.274;22.506;2023-05-20T01:01:42;13.60;99.90
33655;DHT22;19997;51.274;22.506;2023-05-20T01:04:09;13.50;99.90
33655;DHT22;19997;51.274;22.506;2023-05-20T01:06:36;13.50;99.90
33655;DHT22;19997;51.274;22.506;2023-05-20T01:09:03;13.40;99.90
33655;DHT22;19997;51.274;22.506;2023-05-20T01:11:33;13.40;99.90
33655;DHT22;19997;51.274;22.506;2023-05-20T01:14:07;13.30;99.90
33655;DHT22;19997;51.274;22.506;2023-05-20T01:16:35;13.30;99.90
33655;DHT22;19997;51.274;22.506;2023-05-20T01:19:07;13.40;99.90
33655;DHT22;19997;51.274;22.506;2023-05-20T01:21:41;13.30;99.90
33655;DHT22;19997;51.274;22.506;2023-05-20T01:24:10;13.30;99.90
33655;DHT22;19997;51.274;22.506;2023-05-20T01:26:38;13.30;99.90
33655;DHT22;19997;51.274;22.506;2023-05-20T01:29:05;13.30;99.90
33655;DHT22;19997;51.274;22.506;2023-05-20T01:31:36;13.30;99.90
33655;DHT22;19997;51.274;22.506;2023-05-20T01:34:05;13.20;99.90
33655;DHT22;19997;51.274;22.506;2023-05-20T01:36:32;13.30;99.90
33655;DHT22;19997;51.274;22.506;2023-05-20T01:39:01;13.30;99.90
33655;DHT22;19997;51.274;22.506;2023-05-20T01:41:33;13.30;99.90
33655;DHT22;19997;51.274;22.506;2023-05-20T01:44:01;13.30;99.90
33655;DHT22;19997;51.274;22.506;2023-05-20T01:46:31;13.30;99.90
33655;DHT22;19997;51.274;22.506;2023-05-20T01:48:59;13.40;99.90
33655;DHT22;19997;51.274;22.506;2023-05-20T01:51:26;13.40;99.90
33655;DHT22;19997;51.274;22.506;2023-05-20T01:53:55;13.50;99.90
33655;DHT22;19997;51.274;22.506;2023-05-20T01:56:22;13.50;99.90
33655;DHT22;19997;51.274;22.506;2023-05-20T01:58:51;13.60;99.90
33655;DHT22;19997;51.274;22.506;2023-05-20T02:01:18;13.60;99.90
33655;DHT22;19997;51.274;22.506;2023-05-20T02:03:45;13.70;99.90
33655;DHT22;19997;51.274;22.506;2023-05-20T02:06:12;13.60;99.90
33655;DHT22;19997;51.274;22.506;2023-05-20T02:08:39;13.70;99.90
33655;DHT22;19997;51.274;22.506;2023-05-20T02:11:06;13.70;99.90
33655;DHT22;19997;51.274;22.506;2023-05-20T02:13:33;13.80;99.90
33655;DHT22;19997;51.274;22.506;2023-05-20T02:16:01;13.70;99.90
33655;DHT22;19997;51.274;22.506;2023-05-20T02:18:29;13.80;99.90
33655;DHT22;19997;51.274;22.506;2023-05-20T02:21:01;13.80;99.90
33655;DHT22;19997;51.274;22.506;2023-05-20T02:23:28;13.80;99.90
33655;DHT22;19997;51.274;22.506;2023-05-20T02:25:57;13.80;99.90
33655;DHT22;19997;51.274;22.506;2023-05-20T02:28:24;13.80;99.90
33655;DHT22;19997;51.274;22.506;2023-05-20T02:30:51;13.90;99.90
33655;DHT22;19997;51.274;22.506;2023-05-20T02:33:20;13.90;99.90
33655;DHT22;19997;51.274;22.506;2023-05-20T02:35:47;13.90;99.90
33655;DHT22;19997;51.274;22.506;2023-05-20T02:38:15;13.90;99.90
33655;DHT22;19997;51.274;22.506;2023-05-20T02:40:43;14.00;99.90
33655;DHT22;19997;51.274;22.506;2023-05-20T02:43:10;14.00;99.90
33655;DHT22;19997;51.274;22.506;2023-05-20T02:45:37;14.00;99.90
33655;DHT22;19997;51.274;22.506;2023-05-20T02:48:05;14.10;99.90
33655;DHT22;19997;51.274;22.506;2023-05-20T02:50:37;14.00;99.90
33655;DHT22;19997;51.274;22.506;2023-05-20T02:53:05;14.10;99.90
33655;DHT22;19997;51.274;22.506;2023-05-20T02:55:33;14.00;99.90
33655;DHT22;19997;51.274;22.506;2023-05-20T02:58:00;14.10;99.90
33655;DHT22;19997;51.274;22.506;2023-05-20T03:00:29;14.10;99.90
33655;DHT22;19997;51.274;22.506;2023-05-20T03:02:56;14.10;99.90
33655;DHT22;19997;51.274;22.506;2023-05-20T03:05:23;14.10;99.90
33655;DHT22;19997;51.274;22.506;2023-05-20T03:07:53;14.10;99.90
33655;DHT22;19997;51.274;22.506;2023-05-20T03:10:20;14.20;99.90
33655;DHT22;19997;51.274;22.506;2023-05-20T03:12:47;14.20;99.90
33655;DHT22;19997;51.274;22.506;2023-05-20T03:15:15;14.20;99.90
33655;DHT22;19997;51.274;22.506;2023-05-20T03:17:42;14.30;99.90
33655;DHT22;19997;51.274;22.506;2023-05-20T03:20:09;14.30;99.90
33655;DHT22;19997;51.274;22.506;2023-05-20T03:22:37;14.30;99.90
33655;DHT22;19997;51.274;22.506;2023-05-20T03:25:08;14.40;99.90
33655;DHT22;19997;51.274;22.506;2023-05-20T03:27:35;14.40;99.90
33655;DHT22;19997;51.274;22.506;2023-05-20T03:30:03;14.40;99.90
33655;DHT22;19997;51.274;22.506;2023-05-20T03:32:31;14.40;99.90
33655;DHT22;19997;51.274;22.506;2023-05-20T03:34:58;14.40;99.90
33655;DHT22;19997;51.274;22.506;2023-05-20T03:37:25;14.40;99.90
33655;DHT22;19997;51.274;22.506;2023-05-20T03:39:52;14.40;99.90
33655;DHT22;19997;51.274;22.506;2023-05-20T03:42:21;14.30;99.90
33655;DHT22;19997;51.274;22.506;2023-05-20T03:44:48;14.30;99.90
33655;DHT22;19997;51.274;22.506;2023-05-20T03:47:15;14.30;99.90
33655;DHT22;19997;51.274;22.506;2023-05-20T03:49:43;14.30;99.90
33655;DHT22;19997;51.274;22.506;2023-05-20T03:52:10;14.30;99.90
33655;DHT22;19997;51.274;22.506;2023-05-20T03:54:38;14.30;99.90
33655;DHT22;19997;51.274;22.506;2023-05-20T03:57:05;14.40;99.90
33655;DHT22;19997;51.274;22.506;2023-05-20T03:59:34;14.40;99.90
33655;DHT22;19997;51.274;22.506;2023-05-20T04:02:01;14.50;99.90
33655;DHT22;19997;51.274;22.506;2023-05-20T04:04:29;14.60;99.90
33655;DHT22;19997;51.274;22.506;2023-05-20T04:06:57;14.60;99.90
33655;DHT22;19997;51.274;22.506;2023-05-20T04:09:25;14.60;99.90
33655;DHT22;19997;51.274;22.506;2023-05-20T04:11:52;14.60;99.90
33655;DHT22;19997;51.274;22.506;2023-05-20T04:14:20;14.60;99.90
33655;DHT22;19997;51.274;22.506;2023-05-20T04:16:48;14.60;99.90
33655;DHT22;19997;51.274;22.506;2023-05-20T04:19:16;14.70;99.90
33655;DHT22;19997;51.274;22.506;2023-05-20T04:21:44;14.70;99.90
33655;DHT22;19997;51.274;22.506;2023-05-20T04:24:12;14.70;99.90
33655;DHT22;19997;51.274;22.506;2023-05-20T04:26:39;14.70;99.90
33655;DHT22;19997;51.274;22.506;2023-05-20T04:29:06;14.70;99.90
33655;DHT22;19997;51.274;22.506;2023-05-20T04:31:34;14.70;99.90
33655;DHT22;19997;51.274;22.506;2023-05-20T04:34:04;14.70;99.90
33655;DHT22;19997;51.274;22.506;2023-05-20T04:36:32;14.80;99.90
33655;DHT22;19997;51.274;22.506;2023-05-20T04:39:01;14.80;99.90
33655;DHT22;19997;51.274;22.506;2023-05-20T04:41:29;14.80;99.90
33655;DHT22;19997;51.274;22.506;2023-05-20T04:43:57;14.80;99.90
33655;DHT22;19997;51.274;22.506;2023-05-20T04:46:25;14.90;99.90
33655;DHT22;19997;51.274;22.506;2023-05-20T04:48:52;14.90;99.90
33655;DHT22;19997;51.274;22.506;2023-05-20T04:51:21;15.00;99.90
33655;DHT22;19997;51.274;22.506;2023-05-20T04:53:48;15.10;99.90
33655;DHT22;19997;51.274;22.506;2023-05-20T04:56:15;15.20;99.90
33655;DHT22;19997;51.274;22.506;2023-05-20T04:58:42;15.30;99.90
33655;DHT22;19997;51.274;22.506;2023-05-20T05:01:10;15.40;99.90
33655;DHT22;19997;51.274;22.506;2023-05-20T05:03:37;15.50;99.90
33655;DHT22;19997;51.274;22.506;2023-05-20T05:06:07;15.60;99.90
33655;DHT22;19997;51.274;22.506;2023-05-20T05:08:35;15.70;99.90
33655;DHT22;19997;51.274;22.506;2023-05-20T05:11:04;15.70;99.90
33655;DHT22;19997;51.274;22.506;2023-05-20T05:13:31;15.80;99.90
33655;DHT22;19997;51.274;22.506;2023-05-20T05:15:58;15.90;99.90
33655;DHT22;19997;51.274;22.506;2023-05-20T05:18:46;15.90;99.90
33655;DHT22;19997;51.274;22.506;2023-05-20T05:21:13;16.00;99.90
33655;DHT22;19997;51.274;22.506;2023-05-20T05:23:42;16.00;99.90
33655;DHT22;19997;51.274;22.506;2023-05-20T05:26:10;16.00;99.90
33655;DHT22;19997;51.274;22.506;2023-05-20T05:28:37;16.10;99.90
33655;DHT22;19997;51.274;22.506;2023-05-20T05:31:04;16.20;99.90
33655;DHT22;19997;51.274;22.506;2023-05-20T05:33:31;16.30;99.90
33655;DHT22;19997;51.274;22.506;2023-05-20T05:35:58;16.30;99.90
33655;DHT22;19997;51.274;22.506;2023-05-20T05:38:47;16.40;99.90
33655;DHT22;19997;51.274;22.506;2023-05-20T05:41:14;16.50;99.90
33655;DHT22;19997;51.274;22.506;2023-05-20T05:43:41;16.50;99.90
33655;DHT22;19997;51.274;22.506;2023-05-20T05:46:08;16.60;99.90
33655;DHT22;19997;51.274;22.506;2023-05-20T05:48:36;16.70;99.90
33655;DHT22;19997;51.274;22.506;2023-05-20T05:51:04;16.70;99.90
33655;DHT22;19997;51.274;22.506;2023-05-20T05:53:32;16.80;99.90
33655;DHT22;19997;51.274;22.506;2023-05-20T05:56:01;16.80;99.90
33655;DHT22;19997;51.274;22.506;2023-05-20T05:58:28;16.90;99.90
33655;DHT22;19997;51.274;22.506;2023-05-20T06:00:56;17.00;99.90
33655;DHT22;19997;51.274;22.506;2023-05-20T06:03:23;17.10;99.90
33655;DHT22;19997;51.274;22.506;2023-05-20T06:05:50;17.30;99.90
33655;DHT22;19997;51.274;22.506;2023-05-20T06:08:19;17.30;99.90
33655;DHT22;19997;51.274;22.506;2023-05-20T06:10:47;17.40;99.90
33655;DHT22;19997;51.274;22.506;2023-05-20T06:13:17;17.50;99.90
33655;DHT22;19997;51.274;22.506;2023-05-20T06:15:44;17.60;99.90
33655;DHT22;19997;51.274;22.506;2023-05-20T06:18:11;17.70;99.90
33655;DHT22;19997;51.274;22.506;2023-05-20T06:20:38;17.80;99.90
33655;DHT22;19997;51.274;22.506;2023-05-20T06:23:06;17.80;99.90
33655;DHT22;19997;51.274;22.506;2023-05-20T06:25:48;17.90;99.90
33655;DHT22;19997;51.274;22.506;2023-05-20T06:28:17;18.00;99.90
33655;DHT22;19997;51.274;22.506;2023-05-20T06:30:44;18.10;99.90
33655;DHT22;19997;51.274;22.506;2023-05-20T06:33:11;18.20;99.90
33655;DHT22;19997;51.274;22.506;2023-05-20T06:35:40;18.30;99.90
33655;DHT22;19997;51.274;22.506;2023-05-20T06:38:07;18.30;99.90
33655;DHT22;19997;51.274;22.506;2023-05-20T06:40:34;18.40;99.90
33655;DHT22;19997;51.274;22.506;2023-05-20T06:43:01;18.50;99.90
33655;DHT22;19997;51.274;22.506;2023-05-20T06:46:02;18.50;99.90
33655;DHT22;19997;51.274;22.506;2023-05-20T06:48:36;18.60;99.90
33655;DHT22;19997;51.274;22.506;2023-05-20T06:51:06;18.70;99.90
33655;DHT22;19997;51.274;22.506;2023-05-20T06:53:34;18.80;99.90
33655;DHT22;19997;51.274;22.506;2023-05-20T06:56:02;18.90;99.90
33655;DHT22;19997;51.274;22.506;2023-05-20T06:58:29;19.00;99.90
33655;DHT22;19997;51.274;22.506;2023-05-20T07:00:57;19.10;99.90
33655;DHT22;19997;51.274;22.506;2023-05-20T07:03:26;19.10;99.90
33655;DHT22;19997;51.274;22.506;2023-05-20T07:05:53;19.20;99.90
33655;DHT22;19997;51.274;22.506;2023-05-20T07:08:20;19.20;99.90
33655;DHT22;19997;51.274;22.506;2023-05-20T07:10:48;19.30;99.90
33655;DHT22;19997;51.274;22.506;2023-05-20T07:13:19;19.40;99.90
33655;DHT22;19997;51.274;22.506;2023-05-20T07:15:49;19.40;99.90
33655;DHT22;19997;51.274;22.506;2023-05-20T07:18:16;19.50;99.90
33655;DHT22;19997;51.274;22.506;2023-05-20T07:20:51;19.60;99.90
33655;DHT22;19997;51.274;22.506;2023-05-20T07:23:39;19.60;99.90
33655;DHT22;19997;51.274;22.506;2023-05-20T07:26:06;19.70;99.90
33655;DHT22;19997;51.274;22.506;2023-05-20T07:28:33;19.80;99.90
33655;DHT22;19997;51.274;22.506;2023-05-20T07:31:01;19.90;99.90
33655;DHT22;19997;51.274;22.506;2023-05-20T07:33:31;20.00;99.90
33655;DHT22;19997;51.274;22.506;2023-05-20T07:35:59;20.10;99.90
33655;DHT22;19997;51.274;22.506;2023-05-20T07:38:27;20.20;99.90
33655;DHT22;19997;51.274;22.506;2023-05-20T07:40:58;20.30;99.90
33655;DHT22;19997;51.274;22.506;2023-05-20T07:43:26;20.40;99.90
33655;DHT22;19997;51.274;22.506;2023-05-20T07:45:53;20.50;99.90
33655;DHT22;19997;51.274;22.506;2023-05-20T07:48:20;20.60;99.90
33655;DHT22;19997;51.274;22.506;2023-05-20T07:50:48;20.70;99.60
33655;DHT22;19997;51.274;22.506;2023-05-20T07:53:17;20.80;99.60
33655;DHT22;19997;51.274;22.506;2023-05-20T07:55:44;20.90;99.10
33655;DHT22;19997;51.274;22.506;2023-05-20T07:58:12;20.90;99.00
33655;DHT22;19997;51.274;22.506;2023-05-20T08:00:39;21.00;98.80
33655;DHT22;19997;51.274;22.506;2023-05-20T08:03:07;21.10;98.40
33655;DHT22;19997;51.274;22.506;2023-05-20T08:05:54;21.20;98.00
33655;DHT22;19997;51.274;22.506;2023-05-20T08:08:22;21.30;97.60
33655;DHT22;19997;51.274;22.506;2023-05-20T08:10:54;21.30;97.10
33655;DHT22;19997;51.274;22.506;2023-05-20T08:13:24;21.40;96.60
33655;DHT22;19997;51.274;22.506;2023-05-20T08:15:52;21.40;96.30
33655;DHT22;19997;51.274;22.506;2023-05-20T08:18:19;21.50;96.20
33655;DHT22;19997;51.274;22.506;2023-05-20T08:20:46;21.50;96.10
33655;DHT22;19997;51.274;22.506;2023-05-20T08:23:13;21.60;95.60
33655;DHT22;19997;51.274;22.506;2023-05-20T08:25:42;21.60;95.10
33655;DHT22;19997;51.274;22.506;2023-05-20T08:28:11;21.60;94.60
33655;DHT22;19997;51.274;22.506;2023-05-20T08:30:38;21.60;94.50
33655;DHT22;19997;51.274;22.506;2023-05-20T08:33:06;21.70;94.60
33655;DHT22;19997;51.274;22.506;2023-05-20T08:35:33;21.80;94.80
33655;DHT22;19997;51.274;22.506;2023-05-20T08:38:00;21.90;94.80
33655;DHT22;19997;51.274;22.506;2023-05-20T08:40:28;22.00;94.80
33655;DHT22;19997;51.274;22.506;2023-05-20T08:42:56;22.10;94.80
33655;DHT22;19997;51.274;22.506;2023-05-20T08:45:24;22.20;94.50
33655;DHT22;19997;51.274;22.506;2023-05-20T08:47:57;22.40;93.90
33655;DHT22;19997;51.274;22.506;2023-05-20T08:50:24;22.40;93.40
33655;DHT22;19997;51.274;22.506;2023-05-20T08:52:52;22.40;93.30
33655;DHT22;19997;51.274;22.506;2023-05-20T08:55:24;22.50;93.00
33655;DHT22;19997;51.274;22.506;2023-05-20T08:57:53;22.60;92.60
33655;DHT22;19997;51.274;22.506;2023-05-20T09:00:22;22.60;92.30
33655;DHT22;19997;51.274;22.506;2023-05-20T09:02:53;22.60;92.00
33655;DHT22;19997;51.274;22.506;2023-05-20T09:05:21;22.60;92.10
33655;DHT22;19997;51.274;22.506;2023-05-20T09:07:49;22.70;91.90
33655;DHT22;19997;51.274;22.506;2023-05-20T09:10:16;22.80;91.70
33655;DHT22;19997;51.274;22.506;2023-05-20T09:12:43;22.80;91.70
33655;DHT22;19997;51.274;22.506;2023-05-20T09:15:13;22.90;91.60
33655;DHT22;19997;51.274;22.506;2023-05-20T09:17:42;22.90;91.40
33655;DHT22;19997;51.274;22.506;2023-05-20T09:20:10;23.00;91.20
33655;DHT22;19997;51.274;22.506;2023-05-20T09:22:37;23.10;90.60
33655;DHT22;19997;51.274;22.506;2023-05-20T09:25:05;23.20;90.50
33655;DHT22;19997;51.274;22.506;2023-05-20T09:27:34;23.20;90.30
33655;DHT22;19997;51.274;22.506;2023-05-20T09:30:05;23.30;90.30
33655;DHT22;19997;51.274;22.506;2023-05-20T09:32:33;23.40;90.20
33655;DHT22;19997;51.274;22.506;2023-05-20T09:35:02;23.50;90.10
33655;DHT22;19997;51.274;22.506;2023-05-20T09:37:34;23.50;89.30
33655;DHT22;19997;51.274;22.506;2023-05-20T09:40:03;23.50;88.70
33655;DHT22;19997;51.274;22.506;2023-05-20T09:42:38;23.50;88.50
33655;DHT22;19997;51.274;22.506;2023-05-20T09:45:07;23.50;88.40
33655;DHT22;19997;51.274;22.506;2023-05-20T09:47:38;23.60;88.60
33655;DHT22;19997;51.274;22.506;2023-05-20T09:50:09;23.60;88.20
33655;DHT22;19997;51.274;22.506;2023-05-20T09:52:37;23.70;87.80
33655;DHT22;19997;51.274;22.506;2023-05-20T09:55:05;23.70;87.50
33655;DHT22;19997;51.274;22.506;2023-05-20T09:57:33;23.80;87.00
33655;DHT22;19997;51.274;22.506;2023-05-20T10:00:02;23.80;86.80
33655;DHT22;19997;51.274;22.506;2023-05-20T10:02:43;23.90;86.80
33655;DHT22;19997;51.274;22.506;2023-05-20T10:05:18;24.00;86.70
33655;DHT22;19997;51.274;22.506;2023-05-20T10:08:16;24.10;86.10
33655;DHT22;19997;51.274;22.506;2023-05-20T10:10:50;24.20;85.60
33655;DHT22;19997;51.274;22.506;2023-05-20T10:13:30;24.40;84.80
33655;DHT22;19997;51.274;22.506;2023-05-20T10:16:16;24.50;83.70
33655;DHT22;19997;51.274;22.506;2023-05-20T10:19:04;24.60;82.40
33655;DHT22;19997;51.274;22.506;2023-05-20T10:21:37;24.70;82.20
33655;DHT22;19997;51.274;22.506;2023-05-20T10:24:07;24.90;81.90
33655;DHT22;19997;51.274;22.506;2023-05-20T10:26:35;25.20;81.40
33655;DHT22;19997;51.274;22.506;2023-05-20T10:29:14;25.50;80.40
33655;DHT22;19997;51.274;22.506;2023-05-20T10:31:43;25.70;79.00
33655;DHT22;19997;51.274;22.506;2023-05-20T10:34:14;25.90;78.30
33655;DHT22;19997;51.274;22.506;2023-05-20T10:36:46;26.10;78.50
33655;DHT22;19997;51.274;22.506;2023-05-20T10:39:25;26.30;77.10
33655;DHT22;19997;51.274;22.506;2023-05-20T10:42:03;26.60;76.40
33655;DHT22;19997;51.274;22.506;2023-05-20T10:44:41;26.70;75.10
33655;DHT22;19997;51.274;22.506;2023-05-20T10:47:09;26.80;73.40
33655;DHT22;19997;51.274;22.506;2023-05-20T10:49:40;26.70;72.80
33655;DHT22;19997;51.274;22.506;2023-05-20T10:52:09;26.60;72.20
33655;DHT22;19997;51.274;22.506;2023-05-20T10:54:42;26.60;72.00
33655;DHT22;19997;51.274;22.506;2023-05-20T10:57:16;26.60;71.60
33655;DHT22;19997;51.274;22.506;2023-05-20T10:59:43;26.60;71.10
33655;DHT22;19997;51.274;22.506;2023-05-20T11:02:14;26.60;70.90
33655;DHT22;19997;51.274;22.506;2023-05-20T11:04:42;26.50;70.50
33655;DHT22;19997;51.274;22.506;2023-05-20T11:07:11;26.40;70.50
33655;DHT22;19997;51.274;22.506;2023-05-20T11:09:48;26.40;70.60
33655;DHT22;19997;51.274;22.506;2023-05-20T11:12:15;26.30;71.00
33655;DHT22;19997;51.274;22.506;2023-05-20T11:14:43;26.40;71.10
33655;DHT22;19997;51.274;22.506;2023-05-20T11:17:10;26.40;70.60
33655;DHT22;19997;51.274;22.506;2023-05-20T11:19:39;26.60;70.70
33655;DHT22;19997;51.274;22.506;2023-05-20T11:22:07;26.70;70.50
33655;DHT22;19997;51.274;22.506;2023-05-20T11:24:36;26.80;70.10
33655;DHT22;19997;51.274;22.506;2023-05-20T11:27:04;26.90;69.70
33655;DHT22;19997;51.274;22.506;2023-05-20T11:29:32;26.90;69.50
33655;DHT22;19997;51.274;22.506;2023-05-20T11:32:00;27.00;69.40
33655;DHT22;19997;51.274;22.506;2023-05-20T11:34:32;27.10;69.20
33655;DHT22;19997;51.274;22.506;2023-05-20T11:37:01;27.20;68.70
33655;DHT22;19997;51.274;22.506;2023-05-20T11:39:29;27.20;68.50
33655;DHT22;19997;51.274;22.506;2023-05-20T11:42:02;27.20;68.00
33655;DHT22;19997;51.274;22.506;2023-05-20T11:44:32;27.20;67.80
33655;DHT22;19997;51.274;22.506;2023-05-20T11:47:00;27.30;67.70
33655;DHT22;19997;51.274;22.506;2023-05-20T11:49:28;27.40;67.20
33655;DHT22;19997;51.274;22.506;2023-05-20T11:51:56;27.40;66.40
33655;DHT22;19997;51.274;22.506;2023-05-20T11:54:23;27.50;65.80
33655;DHT22;19997;51.274;22.506;2023-05-20T11:56:53;27.50;65.50
33655;DHT22;19997;51.274;22.506;2023-05-20T11:59:29;27.60;64.90
33655;DHT22;19997;51.274;22.506;2023-05-20T12:01:57;27.70;64.30
33655;DHT22;19997;51.274;22.506;2023-05-20T12:04:24;27.90;63.60
33655;DHT22;19997;51.274;22.506;2023-05-20T12:06:51;27.80;63.00
33655;DHT22;19997;51.274;22.506;2023-05-20T12:09:18;27.80;63.00
33655;DHT22;19997;51.274;22.506;2023-05-20T12:11:45;27.80;63.50
33655;DHT22;19997;51.274;22.506;2023-05-20T12:14:12;27.70;63.70
33655;DHT22;19997;51.274;22.506;2023-05-20T12:16:41;27.70;64.20
33655;DHT22;19997;51.274;22.506;2023-05-20T12:19:08;27.70;64.90
33655;DHT22;19997;51.274;22.506;2023-05-20T12:21:35;27.60;65.00
33655;DHT22;19997;51.274;22.506;2023-05-20T12:24:02;27.60;64.60
33655;DHT22;19997;51.274;22.506;2023-05-20T12:26:31;27.50;64.50
33655;DHT22;19997;51.274;22.506;2023-05-20T12:28:59;27.40;64.70
33655;DHT22;19997;51.274;22.506;2023-05-20T12:31:27;27.30;64.50
33655;DHT22;19997;51.274;22.506;2023-05-20T12:33:56;27.20;64.50
33655;DHT22;19997;51.274;22.506;2023-05-20T12:36:23;27.10;65.10
33655;DHT22;19997;51.274;22.506;2023-05-20T12:38:51;27.00;65.10
33655;DHT22;19997;51.274;22.506;2023-05-20T12:41:18;26.90;65.30
33655;DHT22;19997;51.274;22.506;2023-05-20T12:43:45;26.80;65.30
33655;DHT22;19997;51.274;22.506;2023-05-20T12:46:12;26.80;65.60
33655;DHT22;19997;51.274;22.506;2023-05-20T12:48:40;26.70;65.70
33655;DHT22;19997;51.274;22.506;2023-05-20T12:51:08;26.60;66.00
33655;DHT22;19997;51.274;22.506;2023-05-20T12:53:36;26.50;66.00
33655;DHT22;19997;51.274;22.506;2023-05-20T12:56:03;26.40;66.30
33655;DHT22;19997;51.274;22.506;2023-05-20T12:58:32;26.40;66.70
33655;DHT22;19997;51.274;22.506;2023-05-20T13:00:59;26.30;66.40
33655;DHT22;19997;51.274;22.506;2023-05-20T13:03:27;26.30;66.40
33655;DHT22;19997;51.274;22.506;2023-05-20T13:05:54;26.30;66.30
33655;DHT22;19997;51.274;22.506;2023-05-20T13:08:22;26.40;66.60
33655;DHT22;19997;51.274;22.506;2023-05-20T13:10:49;26.40;66.60
33655;DHT22;19997;51.274;22.506;2023-05-20T13:13:17;26.50;66.40
33655;DHT22;19997;51.274;22.506;2023-05-20T13:15:46;26.60;65.70
33655;DHT22;19997;51.274;22.506;2023-05-20T13:18:15;26.60;65.30
33655;DHT22;19997;51.274;22.506;2023-05-20T13:20:42;26.60;65.30
33655;DHT22;19997;51.274;22.506;2023-05-20T13:23:09;26.70;65.20
33655;DHT22;19997;51.274;22.506;2023-05-20T13:25:38;26.70;65.00
33655;DHT22;19997;51.274;22.506;2023-05-20T13:28:05;26.80;65.00
33655;DHT22;19997;51.274;22.506;2023-05-20T13:30:32;26.90;64.90
33655;DHT22;19997;51.274;22.506;2023-05-20T13:32:59;27.00;64.80
33655;DHT22;19997;51.274;22.506;2023-05-20T13:35:26;27.10;64.70
33655;DHT22;19997;51.274;22.506;2023-05-20T13:37:53;27.20;64.50
33655;DHT22;19997;51.274;22.506;2023-05-20T13:40:20;27.30;64.30
33655;DHT22;19997;51.274;22.506;2023-05-20T13:42:49;27.40;64.20
33655;DHT22;19997;51.274;22.506;2023-05-20T13:45:16;27.50;64.10
33655;DHT22;19997;51.274;22.506;2023-05-20T13:47:44;27.50;63.80
33655;DHT22;19997;51.274;22.506;2023-05-20T13:50:11;27.50;63.50
33655;DHT22;19997;51.274;22.506;2023-05-20T13:52:38;27.40;63.40
33655;DHT22;19997;51.274;22.506;2023-05-20T13:55:06;27.40;63.10
33655;DHT22;19997;51.274;22.506;2023-05-20T13:57:34;27.40;63.20
33655;DHT22;19997;51.274;22.506;2023-05-20T14:00:03;27.40;63.20
33655;DHT22;19997;51.274;22.506;2023-05-20T14:02:34;27.40;63.30
33655;DHT22;19997;51.274;22.506;2023-05-20T14:05:01;27.40;64.10
33655;DHT22;19997;51.274;22.506;2023-05-20T14:07:28;27.40;63.00
33655;DHT22;19997;51.274;22.506;2023-05-20T14:09:55;27.50;62.90
33655;DHT22;19997;51.274;22.506;2023-05-20T14:12:22;27.50;62.30
33655;DHT22;19997;51.274;22.506;2023-05-20T14:14:49;27.40;62.00
33655;DHT22;19997;51.274;22.506;2023-05-20T14:17:18;27.30;61.90
33655;DHT22;19997;51.274;22.506;2023-05-20T14:19:45;27.30;61.90
33655;DHT22;19997;51.274;22.506;2023-05-20T14:22:12;27.30;62.00
33655;DHT22;19997;51.274;22.506;2023-05-20T14:24:40;27.20;61.70
33655;DHT22;19997;51.274;22.506;2023-05-20T14:27:07;27.10;62.00
33655;DHT22;19997;51.274;22.506;2023-05-20T14:29:36;27.10;62.20
33655;DHT22;19997;51.274;22.506;2023-05-20T14:32:04;27.00;62.30
33655;DHT22;19997;51.274;22.506;2023-05-20T14:34:33;26.90;61.60
33655;DHT22;19997;51.274;22.506;2023-05-20T14:37:00;26.80;61.30
33655;DHT22;19997;51.274;22.506;2023-05-20T14:39:32;26.70;61.40
33655;DHT22;19997;51.274;22.506;2023-05-20T14:41:59;26.60;61.60
33655;DHT22;19997;51.274;22.506;2023-05-20T14:44:27;26.60;61.80
33655;DHT22;19997;51.274;22.506;2023-05-20T14:46:55;26.50;62.00
33655;DHT22;19997;51.274;22.506;2023-05-20T14:49:22;26.30;61.80
33655;DHT22;19997;51.274;22.506;2023-05-20T14:51:51;26.20;61.90
33655;DHT22;19997;51.274;22.506;2023-05-20T14:54:18;26.10;62.30
33655;DHT22;19997;51.274;22.506;2023-05-20T14:56:49;26.10;62.70
33655;DHT22;19997;51.274;22.506;2023-05-20T14:59:17;26.00;62.90
33655;DHT22;19997;51.274;22.506;2023-05-20T15:01:44;26.00;63.30
33655;DHT22;19997;51.274;22.506;2023-05-20T15:04:11;25.90;63.20
33655;DHT22;19997;51.274;22.506;2023-05-20T15:06:38;25.80;63.20
33655;DHT22;19997;51.274;22.506;2023-05-20T15:09:06;25.70;63.30
33655;DHT22;19997;51.274;22.506;2023-05-20T15:11:33;25.60;63.70
33655;DHT22;19997;51.274;22.506;2023-05-20T15:14:00;25.60;63.80
33655;DHT22;19997;51.274;22.506;2023-05-20T15:16:28;25.60;63.80
33655;DHT22;19997;51.274;22.506;2023-05-20T15:18:55;25.60;63.70
33655;DHT22;19997;51.274;22.506;2023-05-20T15:21:22;25.60;63.80
33655;DHT22;19997;51.274;22.506;2023-05-20T15:23:49;25.60;63.60